createdAt,value
2022-12-11T00:01:29.091Z,3.33
2022-12-11T00:03:55.591Z,3.38
2022-12-11T00:06:23.858Z,3.32
2022-12-11T00:08:54.991Z,3.30
2022-12-11T00:11:22.914Z,3.31
2022-12-11T00:13:49.691Z,3.23
2022-12-11T00:16:16.275Z,3.25
2022-12-11T00:18:42.847Z,3.17
2022-12-11T00:21:13.195Z,3.13
2022-12-11T00:23:40.185Z,3.09
2022-12-11T00:26:12.674Z,3.10
2022-12-11T00:28:39.305Z,3.09
2022-12-11T00:31:07.806Z,3.07
2022-12-11T00:33:34.487Z,3.02
2022-12-11T00:36:01.334Z,2.96
2022-12-11T00:38:28.610Z,2.99
2022-12-11T00:40:59.442Z,2.95
2022-12-11T00:43:26.036Z,2.94
2022-12-11T00:45:52.689Z,2.88
2022-12-11T00:48:19.419Z,2.88
2022-12-11T00:50:46.484Z,2.94
2022-12-11T00:53:13.075Z,2.84
2022-12-11T00:55:41.501Z,2.85
2022-12-11T00:58:08.486Z,2.84
2022-12-11T01:00:35.734Z,2.89
2022-12-11T01:03:02.451Z,2.87
2022-12-11T01:05:29.095Z,2.90
2022-12-11T01:07:55.716Z,2.87
2022-12-11T01:10:25.511Z,2.83
2022-12-11T01:12:58.032Z,2.86
2022-12-11T01:15:27.499Z,2.82
2022-12-11T01:17:54.524Z,2.92
2022-12-11T01:20:22.048Z,2.83
2022-12-11T01:22:51.814Z,2.85
2022-12-11T01:25:18.453Z,2.90
2022-12-11T01:27:45.048Z,2.79
2022-12-11T01:30:13.322Z,2.74
2022-12-11T01:32:39.897Z,2.68
2022-12-11T01:35:08.500Z,2.73
2022-12-11T01:37:35.287Z,2.70
2022-12-11T01:40:02.205Z,2.59
2022-12-11T01:42:29.656Z,2.57
2022-12-11T01:45:27.046Z,2.53
2022-12-11T01:48:00.050Z,2.57
2022-12-11T01:50:28.603Z,2.54
2022-12-11T01:52:55.268Z,2.47
2022-12-11T01:55:22.143Z,2.40
2022-12-11T01:57:50.997Z,2.38
2022-12-11T02:00:18.104Z,2.37
2022-12-11T02:02:45.376Z,2.36
2022-12-11T02:05:12.825Z,2.31
2022-12-11T02:07:56.931Z,2.37
2022-12-11T02:10:38.312Z,2.35
2022-12-11T02:13:30.845Z,2.28
2022-12-11T02:16:10.022Z,2.22
2022-12-11T02:18:48.383Z,2.19
2022-12-11T02:21:37.850Z,2.13
2022-12-11T02:24:32.496Z,2.09
2022-12-11T02:27:14.297Z,2.02
2022-12-11T02:29:56.111Z,1.91
2022-12-11T02:32:56.262Z,1.93
2022-12-11T02:35:35.095Z,1.77
2022-12-11T02:38:11.756Z,1.77
2022-12-11T02:40:40.912Z,1.74
2022-12-11T02:43:11.543Z,1.67
2022-12-11T02:45:39.794Z,1.67
2022-12-11T02:48:08.381Z,1.65
2022-12-11T02:50:38.261Z,1.55
2022-12-11T02:53:06.688Z,1.55
2022-12-11T02:55:37.453Z,1.58
2022-12-11T02:58:17.423Z,1.52
2022-12-11T03:00:47.287Z,1.49
2022-12-11T03:03:14.061Z,1.47
2022-12-11T03:05:41.972Z,1.46
2022-12-11T03:08:08.866Z,1.43
2022-12-11T03:10:35.490Z,1.38
2022-12-11T03:13:03.091Z,1.43
2022-12-11T03:15:39.827Z,1.35
2022-12-11T03:18:28.187Z,1.40
2022-12-11T03:21:18.713Z,1.39
2022-12-11T03:24:15.181Z,1.41
2022-12-11T03:26:56.345Z,1.33
2022-12-11T03:29:26.803Z,1.29
2022-12-11T03:32:08.564Z,1.19
2022-12-11T03:34:44.218Z,1.21
2022-12-11T03:37:14.006Z,1.22
2022-12-11T03:39:47.235Z,1.23
2022-12-11T03:42:16.613Z,1.11
2022-12-11T03:44:49.605Z,1.18
2022-12-11T03:47:20.717Z,1.12
2022-12-11T03:49:48.629Z,1.15
2022-12-11T03:52:17.327Z,1.09
2022-12-11T03:54:49.030Z,1.11
2022-12-11T03:57:20.724Z,1.12
2022-12-11T03:59:47.567Z,1.11
2022-12-11T04:02:14.141Z,1.04
2022-12-11T04:04:42.342Z,1.04
2022-12-11T04:07:09.433Z,1.05
2022-12-11T04:09:36.493Z,1.02
2022-12-11T04:12:03.103Z,1.05
2022-12-11T04:14:48.773Z,0.99
2022-12-11T04:17:38.318Z,1.01
2022-12-11T04:20:24.685Z,0.98
2022-12-11T04:23:10.207Z,0.95
2022-12-11T04:25:37.062Z,0.96
2022-12-11T04:28:03.717Z,0.89
2022-12-11T04:30:34.173Z,0.91
2022-12-11T04:33:01.551Z,0.93
2022-12-11T04:35:28.587Z,0.82
2022-12-11T04:37:55.174Z,0.80
2022-12-11T04:40:22.262Z,0.85
2022-12-11T04:42:48.954Z,0.86
2022-12-11T04:45:15.777Z,0.84
2022-12-11T04:47:42.402Z,0.85
2022-12-11T04:50:11.099Z,0.86
2022-12-11T04:52:37.759Z,0.79
2022-12-11T04:55:06.292Z,0.84
2022-12-11T04:57:32.898Z,0.80
2022-12-11T05:00:00.005Z,0.77
2022-12-11T05:02:27.058Z,0.77
2022-12-11T05:04:53.861Z,0.79
2022-12-11T05:07:20.464Z,0.78
2022-12-11T05:09:47.043Z,0.80
2022-12-11T05:12:13.607Z,0.83
2022-12-11T05:14:40.130Z,0.83
2022-12-11T05:17:06.648Z,0.80
2022-12-11T05:19:33.217Z,0.79
2022-12-11T05:21:59.770Z,0.82
2022-12-11T05:24:26.322Z,0.78
2022-12-11T05:26:52.924Z,0.84
2022-12-11T05:29:19.448Z,0.82
2022-12-11T05:31:46.070Z,0.82
2022-12-11T05:34:12.733Z,0.80
2022-12-11T05:36:39.341Z,0.82
2022-12-11T05:39:05.986Z,0.85
2022-12-11T05:41:33.892Z,0.86
2022-12-11T05:44:00.676Z,0.80
2022-12-11T05:46:29.508Z,0.81
2022-12-11T05:48:58.351Z,0.78
2022-12-11T05:51:25.504Z,0.79
2022-12-11T05:53:53.610Z,0.84
2022-12-11T05:56:23.060Z,0.81
2022-12-11T05:58:50.294Z,0.83
2022-12-11T06:01:20.727Z,0.83
2022-12-11T06:03:47.639Z,0.82
2022-12-11T06:06:15.243Z,0.80
2022-12-11T06:08:42.035Z,0.79
2022-12-11T06:11:08.764Z,0.78
2022-12-11T06:13:36.044Z,0.77
2022-12-11T06:16:04.201Z,0.84
2022-12-11T06:18:31.225Z,0.92
2022-12-11T06:20:57.963Z,0.88
2022-12-11T06:23:24.520Z,0.88
2022-12-11T06:25:51.068Z,0.89
2022-12-11T06:28:17.590Z,0.88
2022-12-11T06:30:44.982Z,0.85
2022-12-11T06:33:11.580Z,0.91
2022-12-11T06:35:42.082Z,0.87
2022-12-11T06:38:10.830Z,0.86
2022-12-11T06:40:38.301Z,0.95
2022-12-11T06:43:05.078Z,0.96
2022-12-11T06:45:31.663Z,0.95
2022-12-11T06:47:58.726Z,0.96
2022-12-11T06:50:25.337Z,0.94
2022-12-11T06:52:52.037Z,0.99
2022-12-11T06:55:18.615Z,0.94
2022-12-11T06:57:45.160Z,0.97
2022-12-11T07:00:12.203Z,1.01
2022-12-11T07:02:38.799Z,1.02
2022-12-11T07:05:05.837Z,1.01
2022-12-11T07:07:32.793Z,0.99
2022-12-11T07:10:04.213Z,1.04
2022-12-11T07:12:34.546Z,1.04
2022-12-11T07:15:03.464Z,1.11
2022-12-11T07:17:30.454Z,1.06
2022-12-11T07:19:57.118Z,1.04
2022-12-11T07:22:23.794Z,1.07
2022-12-11T07:24:50.379Z,1.17
2022-12-11T07:27:16.991Z,1.24
2022-12-11T07:29:43.590Z,1.19
2022-12-11T07:32:10.763Z,1.27
2022-12-11T07:34:37.700Z,1.22
2022-12-11T07:37:04.538Z,1.33
2022-12-11T07:39:31.185Z,1.29
2022-12-11T07:41:57.759Z,1.39
2022-12-11T07:44:27.592Z,1.39
2022-12-11T07:46:56.506Z,1.49
2022-12-11T07:49:23.207Z,1.45
2022-12-11T07:51:49.909Z,1.49
2022-12-11T07:54:17.047Z,1.41
2022-12-11T07:56:45.696Z,1.50
2022-12-11T07:59:16.703Z,1.53
2022-12-11T08:01:45.732Z,1.51
2022-12-11T08:04:15.586Z,1.48
2022-12-11T08:06:42.787Z,1.40
2022-12-11T08:09:15.972Z,1.48
2022-12-11T08:11:49.401Z,1.55
2022-12-11T08:14:15.990Z,1.56
2022-12-11T08:16:44.199Z,1.58
2022-12-11T08:19:14.905Z,1.67
2022-12-11T08:21:41.451Z,1.70
2022-12-11T08:24:09.142Z,1.68
2022-12-11T08:26:35.970Z,1.63
2022-12-11T08:29:03.350Z,1.69
2022-12-11T08:31:30.183Z,1.79
2022-12-11T08:33:57.778Z,1.86
2022-12-11T08:36:25.281Z,1.82
2022-12-11T08:38:53.818Z,1.74
2022-12-11T08:41:24.186Z,1.79
2022-12-11T08:43:54.902Z,1.82
2022-12-11T08:46:24.045Z,1.77
2022-12-11T08:48:51.047Z,1.82
2022-12-11T08:51:23.618Z,1.80
2022-12-11T08:53:51.440Z,1.90
2022-12-11T08:56:20.257Z,1.85
2022-12-11T08:58:50.036Z,1.91
2022-12-11T09:01:21.648Z,1.78
2022-12-11T09:03:49.554Z,1.77
2022-12-11T09:06:18.703Z,1.74
2022-12-11T09:08:52.649Z,1.80
2022-12-11T09:11:23.474Z,1.74
2022-12-11T09:13:53.020Z,1.72
2022-12-11T09:16:21.805Z,1.79
2022-12-11T09:18:50.611Z,1.87
2022-12-11T09:21:19.967Z,1.93
2022-12-11T09:23:47.186Z,1.92
2022-12-11T09:26:17.837Z,1.91
2022-12-11T09:28:46.997Z,1.94
2022-12-11T09:31:16.683Z,1.84
2022-12-11T09:33:44.280Z,1.85
2022-12-11T09:36:12.026Z,1.88
2022-12-11T09:38:39.134Z,1.89
2022-12-11T09:41:40.382Z,2.11
2022-12-11T09:44:25.226Z,2.06
2022-12-11T09:46:52.432Z,1.91
2022-12-11T09:49:37.636Z,1.88
2022-12-11T09:52:31.425Z,2.05
2022-12-11T09:55:01.645Z,2.10
2022-12-11T09:58:05.288Z,2.11
2022-12-11T10:01:02.184Z,2.20
2022-12-11T10:04:14.823Z,2.15
2022-12-11T10:07:20.785Z,2.27
2022-12-11T10:09:50.461Z,2.25
2022-12-11T10:12:44.864Z,2.13
2022-12-11T10:15:26.664Z,2.16
2022-12-11T10:18:02.915Z,2.09
2022-12-11T10:20:42.095Z,2.22
2022-12-11T10:23:16.783Z,2.12
2022-12-11T10:25:57.040Z,2.04
2022-12-11T10:28:23.711Z,1.89
2022-12-11T10:31:15.782Z,1.87
2022-12-11T10:33:58.806Z,1.81
2022-12-11T10:36:31.240Z,1.82
2022-12-11T10:38:58.465Z,1.81
2022-12-11T10:41:39.661Z,1.88
2022-12-11T10:44:17.891Z,1.83
2022-12-11T10:46:49.460Z,1.91
2022-12-11T10:49:30.572Z,1.78
2022-12-11T10:51:58.282Z,1.90
2022-12-11T10:54:43.913Z,1.83
2022-12-11T10:57:14.291Z,1.84
2022-12-11T10:59:45.541Z,1.78
2022-12-11T11:02:30.611Z,1.81
2022-12-11T11:05:00.033Z,1.86
2022-12-11T11:07:30.225Z,1.82
2022-12-11T11:10:11.753Z,1.69
2022-12-11T11:12:50.090Z,1.79
2022-12-11T11:15:25.104Z,1.79
2022-12-11T11:17:56.006Z,1.77
2022-12-11T11:20:29.490Z,1.68
2022-12-11T11:23:01.614Z,1.78
2022-12-11T11:25:31.007Z,1.85
2022-12-11T11:28:06.431Z,1.87
2022-12-11T11:30:39.700Z,1.83
2022-12-11T11:33:15.866Z,1.96
2022-12-11T11:35:56.138Z,2.05
2022-12-11T11:38:28.089Z,2.09
2022-12-11T11:41:07.673Z,2.14
2022-12-11T11:44:07.046Z,2.28
2022-12-11T11:46:43.447Z,2.43
2022-12-11T11:49:13.165Z,2.22
2022-12-11T11:51:52.626Z,1.96
2022-12-11T11:54:36.134Z,1.96
2022-12-11T11:57:17.638Z,2.21
2022-12-11T11:59:52.491Z,2.10
2022-12-11T12:02:19.987Z,2.13
2022-12-11T12:04:47.773Z,1.94
2022-12-11T12:07:23.119Z,1.97
2022-12-11T12:09:58.875Z,2.02
2022-12-11T12:12:41.051Z,1.97
2022-12-11T12:15:28.780Z,1.90
2022-12-11T12:17:58.653Z,1.83
2022-12-11T12:20:48.870Z,1.76
2022-12-11T12:23:22.682Z,1.89
2022-12-11T12:26:01.593Z,1.81
2022-12-11T12:28:56.082Z,1.86
2022-12-11T12:31:55.673Z,1.91
2022-12-11T12:34:30.766Z,1.88
2022-12-11T12:37:01.820Z,1.67
2022-12-11T12:40:01.749Z,1.59
2022-12-11T12:42:47.049Z,1.67
2022-12-11T12:45:41.038Z,1.55
2022-12-11T12:48:09.335Z,1.67
2022-12-11T12:50:44.717Z,1.74
2022-12-11T12:53:19.396Z,1.78
2022-12-11T12:55:50.499Z,1.83
2022-12-11T12:58:29.353Z,1.81
2022-12-11T13:01:08.767Z,1.83
2022-12-11T13:03:51.028Z,1.83
2022-12-11T13:06:34.586Z,1.86
2022-12-11T13:09:30.644Z,1.83
2022-12-11T13:12:00.394Z,1.81
2022-12-11T13:14:32.629Z,1.73
2022-12-11T13:17:22.205Z,1.76
2022-12-11T13:19:53.035Z,1.83
2022-12-11T13:22:24.726Z,1.86
2022-12-11T13:25:02.036Z,1.81
2022-12-11T13:27:44.595Z,2.03
2022-12-11T13:30:14.203Z,1.94
2022-12-11T13:32:55.557Z,1.91
2022-12-11T13:35:22.142Z,2.08
2022-12-11T13:37:52.120Z,2.06
2022-12-11T13:40:26.331Z,1.98
2022-12-11T13:42:56.666Z,1.92
2022-12-11T13:45:29.951Z,1.88
2022-12-11T13:48:00.409Z,1.95
2022-12-11T13:50:34.542Z,1.94
2022-12-11T13:53:04.981Z,1.90
2022-12-11T13:55:34.185Z,1.89
2022-12-11T13:58:01.251Z,1.88
2022-12-11T14:00:32.960Z,1.92
2022-12-11T14:03:07.461Z,1.82
2022-12-11T14:05:35.182Z,1.66
2022-12-11T14:08:11.070Z,1.73
2022-12-11T14:10:39.075Z,1.79
2022-12-11T14:13:26.453Z,1.76
2022-12-11T14:15:54.193Z,1.70
2022-12-11T14:18:27.355Z,1.71
2022-12-11T14:20:58.908Z,1.70
2022-12-11T14:23:27.953Z,1.53
2022-12-11T14:26:00.551Z,1.56
2022-12-11T14:28:37.884Z,1.58
2022-12-11T14:31:08.058Z,1.56
2022-12-11T14:33:43.554Z,1.39
2022-12-11T14:36:11.217Z,1.48
2022-12-11T14:38:46.210Z,1.35
2022-12-11T14:41:39.710Z,1.36
2022-12-11T14:44:12.617Z,1.34
2022-12-11T14:46:42.964Z,1.31
2022-12-11T14:49:43.707Z,1.30
2022-12-11T14:52:15.312Z,1.17
2022-12-11T14:54:51.232Z,1.10
2022-12-11T14:57:24.846Z,1.11
2022-12-11T14:59:55.466Z,1.11
2022-12-11T15:02:22.019Z,1.12
2022-12-11T15:05:12.479Z,1.05
2022-12-11T15:07:40.367Z,1.03
2022-12-11T15:10:07.295Z,1.01
2022-12-11T15:12:34.952Z,1.01
2022-12-11T15:15:05.967Z,0.98
2022-12-11T15:17:34.688Z,0.97
2022-12-11T15:20:08.858Z,0.94
2022-12-11T15:22:36.071Z,0.97
2022-12-11T15:25:03.140Z,0.96
2022-12-11T15:27:39.875Z,0.93
2022-12-11T15:30:19.775Z,0.81
2022-12-11T15:32:47.472Z,0.87
2022-12-11T15:35:25.760Z,0.87
2022-12-11T15:37:54.634Z,0.91
2022-12-11T15:40:21.542Z,0.84
2022-12-11T15:42:48.707Z,0.83
2022-12-11T15:45:19.903Z,0.88
2022-12-11T15:47:48.111Z,0.85
2022-12-11T15:50:21.738Z,0.78
2022-12-11T15:52:49.543Z,0.77
2022-12-11T15:55:16.750Z,0.82
2022-12-11T15:57:46.838Z,0.74
2022-12-11T16:00:15.698Z,0.76
2022-12-11T16:02:42.703Z,0.72
2022-12-11T16:05:09.785Z,0.77
2022-12-11T16:07:38.465Z,0.74
2022-12-11T16:10:07.180Z,0.69
2022-12-11T16:12:33.735Z,0.70
2022-12-11T16:15:00.293Z,0.68
2022-12-11T16:17:26.924Z,0.68
2022-12-11T16:19:54.159Z,0.74
2022-12-11T16:22:20.721Z,0.70
2022-12-11T16:24:47.413Z,0.65
2022-12-11T16:27:17.324Z,0.69
2022-12-11T16:29:47.019Z,0.65
2022-12-11T16:32:13.598Z,0.62
2022-12-11T16:36:28.523Z,0.60
2022-12-11T16:39:55.032Z,0.57
2022-12-11T16:42:21.642Z,0.55
2022-12-11T16:44:48.605Z,0.55
2022-12-11T16:47:15.177Z,0.53
2022-12-11T16:49:43.189Z,0.62
2022-12-11T16:52:09.785Z,0.52
2022-12-11T16:54:36.352Z,0.43
2022-12-11T16:57:02.911Z,0.50
2022-12-11T16:59:35.155Z,0.59
2022-12-11T17:02:03.873Z,0.49
2022-12-11T17:04:30.519Z,0.50
2022-12-11T17:06:57.112Z,0.50
2022-12-11T17:09:23.701Z,0.50
2022-12-11T17:11:50.286Z,0.49
2022-12-11T17:14:16.889Z,0.51
2022-12-11T17:16:43.446Z,0.40
2022-12-11T17:19:10.089Z,0.47
2022-12-11T17:21:36.679Z,0.45
2022-12-11T17:24:03.320Z,0.39
2022-12-11T17:26:29.956Z,0.34
2022-12-11T17:28:57.608Z,0.35
2022-12-11T17:31:24.450Z,0.40
2022-12-11T17:33:51.176Z,0.40
2022-12-11T17:36:20.621Z,0.34
2022-12-11T17:38:49.490Z,0.33
2022-12-11T17:41:20.518Z,0.30
2022-12-11T17:43:49.244Z,0.35
2022-12-11T17:46:16.437Z,0.32
2022-12-11T17:48:43.415Z,0.26
2022-12-11T17:51:13.388Z,0.30
2022-12-11T17:53:40.145Z,0.27
2022-12-11T17:56:08.767Z,0.25
2022-12-11T17:58:35.480Z,0.27
2022-12-11T18:01:07.206Z,0.24
2022-12-11T18:03:33.909Z,0.33
2022-12-11T18:06:04.881Z,0.33
2022-12-11T18:08:31.552Z,0.27
2022-12-11T18:11:08.253Z,0.21
2022-12-11T18:13:35.252Z,0.33
2022-12-11T18:16:04.296Z,0.19
2022-12-11T18:18:31.331Z,0.20
2022-12-11T18:20:58.000Z,0.27
2022-12-11T18:23:24.720Z,0.25
2022-12-11T18:25:51.981Z,0.25
2022-12-11T18:28:19.066Z,0.19
2022-12-11T18:30:45.835Z,0.15
2022-12-11T18:33:13.208Z,0.12
2022-12-11T18:35:41.322Z,0.10
2022-12-11T18:38:08.357Z,0.12
2022-12-11T18:40:35.045Z,0.20
2022-12-11T18:43:01.678Z,0.18
2022-12-11T18:45:28.306Z,0.18
2022-12-11T18:47:56.637Z,0.18
2022-12-11T18:50:23.631Z,0.22
2022-12-11T18:52:55.058Z,0.14
2022-12-11T18:55:21.802Z,0.16
2022-12-11T18:57:48.619Z,0.11
2022-12-11T19:00:15.804Z,0.21
2022-12-11T19:02:42.595Z,0.08
2022-12-11T19:05:10.237Z,0.08
2022-12-11T19:07:37.121Z,0.11
2022-12-11T19:10:05.044Z,0.06
2022-12-11T19:12:31.630Z,0.06
2022-12-11T19:14:58.217Z,0.14
2022-12-11T19:17:24.761Z,0.08
2022-12-11T19:19:51.377Z,0.05
2022-12-11T19:22:17.970Z,0.02
2022-12-11T19:24:44.579Z,0.03
2022-12-11T19:27:13.717Z,0.05
2022-12-11T19:29:41.299Z,0.06
2022-12-11T19:32:10.409Z,0.06
2022-12-11T19:34:38.567Z,0.05
2022-12-11T19:37:05.299Z,0.03
2022-12-11T19:39:31.943Z,0.09
2022-12-11T19:42:00.745Z,-0.01
2022-12-11T19:44:27.490Z,-0.01
2022-12-11T19:46:54.112Z,-0.04
2022-12-11T19:49:21.521Z,-0.05
2022-12-11T19:51:48.422Z,-0.04
2022-12-11T19:54:16.700Z,-0.11
2022-12-11T19:56:44.215Z,-0.10
2022-12-11T19:59:15.722Z,-0.02
2022-12-11T20:01:49.787Z,-0.05
2022-12-11T20:04:17.285Z,-0.06
2022-12-11T20:06:46.381Z,-0.11
2022-12-11T20:09:14.053Z,-0.08
2022-12-11T20:11:43.005Z,-0.13
2022-12-11T20:14:15.426Z,-0.15
2022-12-11T20:17:09.757Z,-0.13
2022-12-11T20:19:31.706Z,-0.11
2022-12-11T20:21:58.341Z,-0.17
2022-12-11T20:24:24.915Z,-0.19
2022-12-11T20:26:57.229Z,-0.22
2022-12-11T20:29:24.095Z,-0.29
2022-12-11T20:31:51.391Z,-0.37
2022-12-11T20:34:18.201Z,-0.41
2022-12-11T20:36:44.857Z,-0.39
2022-12-11T20:39:11.396Z,-0.59
2022-12-11T20:41:37.994Z,-0.63
2022-12-11T20:44:04.596Z,-0.67
2022-12-11T20:46:31.210Z,-0.64
2022-12-11T20:48:58.864Z,-0.60
2022-12-11T20:51:26.602Z,-0.65
2022-12-11T20:53:59.081Z,-0.61
2022-12-11T20:56:28.657Z,-0.66
2022-12-11T20:58:55.636Z,-0.62
2022-12-11T21:01:24.423Z,-0.52
2022-12-11T21:03:53.655Z,-0.70
2022-12-11T21:06:42.233Z,-0.75
2022-12-11T21:09:19.688Z,-0.70
2022-12-11T21:11:46.285Z,-0.69
2022-12-11T21:14:13.858Z,-0.63
2022-12-11T21:16:40.727Z,-0.70
2022-12-11T21:19:10.222Z,-0.73
2022-12-11T21:21:41.970Z,-0.76
2022-12-11T21:24:14.897Z,-0.73
2022-12-11T21:26:41.501Z,-0.78
2022-12-11T21:29:08.079Z,-0.94
2022-12-11T21:31:34.682Z,-0.94
2022-12-11T21:34:01.253Z,-0.96
2022-12-11T21:36:28.467Z,-1.04
2022-12-11T21:38:54.993Z,-1.05
2022-12-11T21:41:24.147Z,-1.05
2022-12-11T21:46:46.045Z,-1.14
2022-12-11T21:49:12.697Z,-1.13
2022-12-11T21:51:46.795Z,-1.14
2022-12-11T21:54:16.862Z,-1.23
2022-12-11T21:56:44.249Z,-1.23
2022-12-11T21:59:10.903Z,-1.27
2022-12-11T22:01:45.815Z,-1.29
2022-12-11T22:04:13.697Z,-1.26
2022-12-11T22:06:42.874Z,-1.24
2022-12-11T22:09:12.402Z,-1.22
2022-12-11T22:11:39.595Z,-1.20
2022-12-11T22:14:06.963Z,-1.21
2022-12-11T22:16:34.869Z,-1.28
2022-12-11T22:19:01.527Z,-1.29
2022-12-11T22:21:28.385Z,-1.30
2022-12-11T22:23:55.172Z,-1.21
2022-12-11T22:26:25.766Z,-1.26
2022-12-11T22:28:52.567Z,-1.22
2022-12-11T22:31:21.335Z,-1.24
2022-12-11T22:33:53.753Z,-1.29
2022-12-11T22:36:21.589Z,-1.31
2022-12-11T22:38:48.230Z,-1.46
2022-12-11T22:41:27.099Z,-1.49
2022-12-11T22:43:54.502Z,-1.47
2022-12-11T22:46:23.871Z,-1.51
2022-12-11T22:48:51.351Z,-1.54
2022-12-11T22:51:18.219Z,-1.53
2022-12-11T22:53:44.834Z,-1.59
2022-12-11T22:56:12.913Z,-1.57
2022-12-11T22:58:40.105Z,-1.65
2022-12-11T23:01:15.734Z,-1.64
2022-12-11T23:03:42.635Z,-1.76
2022-12-11T23:06:11.874Z,-1.70
2022-12-11T23:08:40.144Z,-1.76
2022-12-11T23:11:12.567Z,-1.74
2022-12-11T23:13:39.167Z,-1.69
2022-12-11T23:16:05.916Z,-1.71
2022-12-11T23:18:32.912Z,-1.75
2022-12-11T23:20:59.531Z,-1.76
2022-12-11T23:23:26.114Z,-1.77
2022-12-11T23:25:53.228Z,-1.72
2022-12-11T23:28:20.023Z,-1.78
2022-12-11T23:30:47.115Z,-1.81
2022-12-11T23:33:13.821Z,-1.82
2022-12-11T23:35:40.412Z,-1.84
2022-12-11T23:38:07.163Z,-1.86
2022-12-11T23:40:34.138Z,-1.81
2022-12-11T23:43:01.256Z,-1.88
2022-12-11T23:45:27.862Z,-1.94
2022-12-11T23:47:54.513Z,-1.93
2022-12-11T23:50:21.089Z,-1.94
2022-12-11T23:52:47.651Z,-2.05
2022-12-11T23:55:14.529Z,-1.98
2022-12-11T23:57:41.420Z,-1.99
